Woodlawn, Missouri
Current Conditions -  °F | °C
As of 4:55 AM on Saturday 25 Oct 2014 (Local Time) from KHAE Reporting Station
Haze Haze  
Wind Chill: 59°   Ceiling: Unl
Heat Index: 59°   Visibility: 4mi
Dew Point: 55°   Wind: 5mph
Humidity: 88%   Direction: 270°W
Pressure: 30"   Gusts: NA
Location:  39.4792°N, 92.217°W
Report Text: KHAE 250955Z AUTO 27004KT 4SM BR CLR 15/13 A3000 RMK AO2
Loading
Personal Weather Stations






























Interactive Weather Map
Tropical Storm Tracking
New forecast layout! Learn more

10-Day Weather Forecast

Advertisements
Track Severe Weather on mobile